Time;durP1;ratioP1;P1;durP2;ratioP2;P2;SDS_P1;SDS_P2;PMS_P1;PMS_P2;Temp;Humidity;BMP_temperature;BMP_pressure;BME280_temperature;BME280_humidity;BME280_pressure;Samples;Min_cycle;Max_cycle;Signal;HPM_P1;HPM_P2
2023/09/23 00:01:28;;;;;;;;;;;12.50;99.90;;;;;;5080556;28;20412;-66
2023/09/23 00:03:54;;;;;;;;;;;12.60;99.90;;;;;;5062235;28;20013;-64
2023/09/23 00:06:22;;;;;;;;;;;12.40;99.90;;;;;;5079264;28;19924;-64
2023/09/23 00:08:48;;;;;;;;;;;12.50;99.90;;;;;;5079612;28;20457;-65
2023/09/23 00:11:15;;;;;;;;;;;12.70;99.90;;;;;;5078891;28;19924;-65
2023/09/23 00:13:40;;;;;;;;;;;12.70;99.90;;;;;;5078822;28;19927;-65
2023/09/23 00:16:11;;;;;;;;;;;12.20;99.90;;;;;;5080810;28;19924;-65
2023/09/23 00:18:38;;;;;;;;;;;12.60;99.90;;;;;;5079098;28;19927;-64
2023/09/23 00:21:05;;;;;;;;;;;12.40;99.90;;;;;;5079487;28;19920;-64
2023/09/23 00:23:33;;;;;;;;;;;12.20;99.90;;;;;;5079331;28;19994;-64
2023/09/23 00:26:00;;;;;;;;;;;12.60;99.90;;;;;;5079280;28;20267;-65
2023/09/23 00:28:30;;;;;;;;;;;12.20;99.90;;;;;;5078754;28;19920;-65
2023/09/23 00:31:11;;;;;;;;;;;12.30;99.90;;;;;;5079100;28;20379;-65
2023/09/23 00:33:37;;;;;;;;;;;12.50;99.90;;;;;;5079786;28;19931;-64
2023/09/23 00:36:04;;;;;;;;;;;12.30;99.90;;;;;;5082772;28;19920;-64
2023/09/23 00:38:30;;;;;;;;;;;12.20;99.90;;;;;;5082754;28;19980;-64
2023/09/23 00:40:57;;;;;;;;;;;12.40;99.90;;;;;;5082751;28;19979;-65
2023/09/23 00:43:23;;;;;;;;;;;12.30;99.90;;;;;;5084523;28;19924;-65
2023/09/23 00:45:51;;;;;;;;;;;12.40;99.90;;;;;;5083111;28;19967;-65
2023/09/23 00:48:21;;;;;;;;;;;12.50;99.90;;;;;;5083338;28;19923;-64
2023/09/23 00:50:47;;;;;;;;;;;12.30;99.90;;;;;;5065514;28;19931;-65
2023/09/23 00:53:12;;;;;;;;;;;12.50;99.90;;;;;;5065558;28;20516;-64
2023/09/23 00:55:42;;;;;;;;;;;12.40;99.90;;;;;;5082396;28;19924;-65
2023/09/23 00:58:14;;;;;;;;;;;12.40;99.90;;;;;;5082491;28;19924;-65
2023/09/23 01:00:43;;;;;;;;;;;12.00;99.90;;;;;;5083046;28;19924;-65
2023/09/23 01:03:09;;;;;;;;;;;12.10;99.90;;;;;;5082159;28;19924;-65
2023/09/23 01:05:35;;;;;;;;;;;12.10;99.90;;;;;;5065260;28;19931;-65
2023/09/23 01:08:04;;;;;;;;;;;12.10;99.90;;;;;;5083539;28;19920;-65
2023/09/23 01:10:30;;;;;;;;;;;12.10;99.90;;;;;;5082029;28;19925;-64
2023/09/23 01:12:56;;;;;;;;;;;12.00;99.90;;;;;;5081996;28;19931;-64
2023/09/23 01:15:28;;;;;;;;;;;12.40;99.90;;;;;;5048886;28;20395;-65
2023/09/23 01:17:54;;;;;;;;;;;12.30;99.90;;;;;;5081969;28;20175;-65
2023/09/23 01:20:20;;;;;;;;;;;12.30;99.90;;;;;;5082167;28;20378;-66
2023/09/23 01:22:47;;;;;;;;;;;12.20;99.90;;;;;;5081374;28;20195;-65
2023/09/23 01:25:13;;;;;;;;;;;12.00;99.90;;;;;;5083139;28;19930;-65
2023/09/23 01:27:39;;;;;;;;;;;11.90;99.90;;;;;;5081366;28;20433;-65
2023/09/23 01:30:05;;;;;;;;;;;12.00;99.90;;;;;;5082739;28;19946;-65
2023/09/23 01:32:51;;;;;;;;;;;11.90;99.90;;;;;;5081058;28;20207;-65
2023/09/23 01:35:17;;;;;;;;;;;12.30;99.90;;;;;;5081748;28;20368;-65
2023/09/23 01:37:47;;;;;;;;;;;12.20;99.90;;;;;;5081814;28;19950;-64
2023/09/23 01:40:18;;;;;;;;;;;12.10;99.90;;;;;;5081822;28;20348;-64
2023/09/23 01:42:46;;;;;;;;;;;11.90;99.90;;;;;;5081127;28;20393;-64
2023/09/23 01:45:13;;;;;;;;;;;12.00;99.90;;;;;;5081721;28;19924;-64
2023/09/23 01:47:41;;;;;;;;;;;12.10;99.90;;;;;;5080422;28;19924;-65
2023/09/23 01:50:11;;;;;;;;;;;11.90;99.90;;;;;;5081523;28;20019;-64
2023/09/23 01:52:37;;;;;;;;;;;12.10;99.90;;;;;;5081192;28;20072;-64
2023/09/23 01:55:04;;;;;;;;;;;11.90;99.90;;;;;;5081055;28;19927;-64
2023/09/23 01:57:33;;;;;;;;;;;12.20;99.90;;;;;;5080777;28;19931;-66
2023/09/23 02:00:00;;;;;;;;;;;12.00;99.90;;;;;;5081187;28;19968;-65
2023/09/23 02:02:27;;;;;;;;;;;11.80;99.90;;;;;;5081288;28;19924;-65
2023/09/23 02:04:53;;;;;;;;;;;11.80;99.90;;;;;;5064222;28;20049;-65
2023/09/23 02:07:18;;;;;;;;;;;11.90;99.90;;;;;;5081179;28;20018;-65
2023/09/23 02:09:45;;;;;;;;;;;12.10;99.90;;;;;;5081061;28;20404;-65
2023/09/23 02:12:12;;;;;;;;;;;12.20;99.90;;;;;;5080310;28;19936;-65
2023/09/23 02:14:41;;;;;;;;;;;11.70;99.90;;;;;;5082414;28;19936;-65
2023/09/23 02:17:06;;;;;;;;;;;11.70;99.90;;;;;;5081188;28;19971;-65
2023/09/23 02:19:32;;;;;;;;;;;11.90;99.90;;;;;;5080420;28;20032;-65
2023/09/23 02:21:58;;;;;;;;;;;11.70;99.90;;;;;;5063621;28;19947;-65
2023/09/23 02:24:23;;;;;;;;;;;12.00;99.90;;;;;;5063883;28;19972;-65
2023/09/23 02:26:49;;;;;;;;;;;11.90;99.90;;;;;;5080263;28;19939;-65
2023/09/23 02:29:17;;;;;;;;;;;11.90;99.90;;;;;;5080322;28;19923;-65
2023/09/23 02:31:48;;;;;;;;;;;11.90;99.90;;;;;;5080580;28;19928;-65
2023/09/23 02:34:18;;;;;;;;;;;11.90;99.90;;;;;;5081861;28;19931;-65
2023/09/23 02:36:45;;;;;;;;;;;11.70;99.90;;;;;;5080226;28;20367;-65
2023/09/23 02:39:15;;;;;;;;;;;11.80;99.90;;;;;;5081344;28;20329;-64
2023/09/23 02:41:45;;;;;;;;;;;11.70;99.90;;;;;;5063758;28;19924;-65
2023/09/23 02:44:14;;;;;;;;;;;11.60;99.90;;;;;;5080428;28;19923;-66
2023/09/23 02:46:41;;;;;;;;;;;11.80;99.90;;;;;;5080339;28;20181;-65
2023/09/23 02:49:09;;;;;;;;;;;11.80;99.90;;;;;;5080110;28;19931;-65
2023/09/23 02:51:35;;;;;;;;;;;11.80;99.90;;;;;;5081586;28;19954;-65
2023/09/23 02:54:01;;;;;;;;;;;11.50;99.90;;;;;;5080150;28;20364;-65
2023/09/23 02:56:27;;;;;;;;;;;11.50;99.90;;;;;;5063767;28;19920;-65
2023/09/23 02:58:53;;;;;;;;;;;11.60;99.90;;;;;;5078885;28;19927;-65
2023/09/23 03:01:18;;;;;;;;;;;11.50;99.90;;;;;;5080364;28;19924;-65
2023/09/23 03:03:46;;;;;;;;;;;11.70;99.90;;;;;;5079843;28;19920;-64
2023/09/23 03:06:14;;;;;;;;;;;11.50;99.90;;;;;;5080152;28;19994;-65
2023/09/23 03:08:43;;;;;;;;;;;11.90;99.90;;;;;;5080193;28;20125;-65
2023/09/23 03:11:11;;;;;;;;;;;11.70;99.90;;;;;;5081803;28;19935;-64
2023/09/23 03:13:36;;;;;;;;;;;11.60;99.90;;;;;;5080352;28;20294;-65
2023/09/23 03:16:08;;;;;;;;;;;11.70;99.90;;;;;;5079535;28;19920;-65
2023/09/23 03:18:36;;;;;;;;;;;11.90;99.90;;;;;;5079381;28;20152;-65
2023/09/23 03:21:08;;;;;;;;;;;11.60;99.90;;;;;;5081216;28;20324;-65
2023/09/23 03:23:39;;;;;;;;;;;11.80;99.90;;;;;;5081151;28;20114;-65
2023/09/23 03:26:06;;;;;;;;;;;11.80;99.90;;;;;;5079247;28;19974;-65
2023/09/23 03:28:33;;;;;;;;;;;11.40;99.90;;;;;;5080888;28;20314;-65
2023/09/23 03:30:59;;;;;;;;;;;11.50;99.90;;;;;;5079321;28;19999;-64
2023/09/23 03:33:25;;;;;;;;;;;11.70;99.90;;;;;;5079435;28;19924;-65
2023/09/23 03:35:50;;;;;;;;;;;11.50;99.90;;;;;;5079698;28;19926;-64
2023/09/23 03:38:16;;;;;;;;;;;11.60;99.90;;;;;;5079825;28;20288;-65
2023/09/23 03:40:49;;;;;;;;;;;11.30;99.90;;;;;;5079267;28;19981;-65
2023/09/23 03:43:14;;;;;;;;;;;11.40;99.90;;;;;;5063029;28;19927;-65
2023/09/23 03:45:40;;;;;;;;;;;11.30;99.90;;;;;;5079708;28;20324;-65
2023/09/23 03:48:06;;;;;;;;;;;11.10;99.90;;;;;;5080221;28;20061;-65
2023/09/23 03:50:32;;;;;;;;;;;11.10;99.90;;;;;;5080849;28;19928;-65
2023/09/23 03:52:58;;;;;;;;;;;11.20;99.90;;;;;;5081183;28;19984;-65
2023/09/23 03:55:24;;;;;;;;;;;11.40;99.90;;;;;;5079098;28;20585;-65
2023/09/23 03:57:50;;;;;;;;;;;11.10;99.90;;;;;;5062668;28;19920;-65
2023/09/23 04:00:19;;;;;;;;;;;11.10;99.90;;;;;;5080576;28;19920;-66
2023/09/23 04:02:49;;;;;;;;;;;11.00;99.90;;;;;;5078986;28;20242;-66
2023/09/23 04:05:15;;;;;;;;;;;11.40;99.90;;;;;;5080692;28;19928;-66
2023/09/23 04:07:41;;;;;;;;;;;11.00;99.90;;;;;;5078800;28;19999;-63
2023/09/23 04:10:08;;;;;;;;;;;10.90;99.90;;;;;;5080795;28;19954;-65
2023/09/23 04:12:34;;;;;;;;;;;11.00;99.90;;;;;;5084469;28;20446;-65
2023/09/23 04:14:59;;;;;;;;;;;11.20;99.90;;;;;;5082530;28;19969;-65
2023/09/23 04:17:26;;;;;;;;;;;11.20;99.90;;;;;;5084978;28;19958;-65
2023/09/23 04:19:53;;;;;;;;;;;10.90;99.90;;;;;;5082590;28;19931;-64
2023/09/23 04:22:18;;;;;;;;;;;10.90;99.90;;;;;;5084153;28;19967;-65
2023/09/23 04:24:44;;;;;;;;;;;11.20;99.90;;;;;;5083915;28;19982;-65
2023/09/23 04:27:10;;;;;;;;;;;11.20;99.90;;;;;;5082272;28;19934;-65
2023/09/23 04:29:36;;;;;;;;;;;10.90;99.90;;;;;;5082442;28;20479;-65
2023/09/23 04:32:03;;;;;;;;;;;11.30;99.90;;;;;;5082944;28;19927;-65
2023/09/23 04:34:29;;;;;;;;;;;11.30;99.90;;;;;;5082949;28;19963;-65
2023/09/23 04:36:56;;;;;;;;;;;10.90;99.90;;;;;;5082188;28;19989;-65
2023/09/23 04:39:22;;;;;;;;;;;10.90;99.90;;;;;;5083758;28;19924;-65
2023/09/23 04:41:47;;;;;;;;;;;10.90;99.90;;;;;;5048785;28;19931;-65
2023/09/23 04:44:13;;;;;;;;;;;11.20;99.90;;;;;;5082114;28;20190;-64
2023/09/23 04:46:39;;;;;;;;;;;11.10;99.90;;;;;;5082188;28;20481;-64
2023/09/23 04:49:04;;;;;;;;;;;11.20;99.90;;;;;;5082924;28;19927;-66
2023/09/23 04:51:30;;;;;;;;;;;11.00;99.90;;;;;;5065060;28;20036;-66
2023/09/23 04:53:56;;;;;;;;;;;11.10;99.90;;;;;;5049296;28;19931;-65
2023/09/23 04:56:21;;;;;;;;;;;11.40;99.90;;;;;;5085457;28;20587;-65
2023/09/23 04:58:47;;;;;;;;;;;10.90;99.90;;;;;;5087891;28;20141;-65
2023/09/23 05:01:15;;;;;;;;;;;11.10;99.90;;;;;;5069076;28;20392;-65
2023/09/23 05:03:42;;;;;;;;;;;11.20;99.90;;;;;;5069558;28;19920;-65
2023/09/23 05:06:10;;;;;;;;;;;11.20;99.90;;;;;;5086050;28;20019;-64
2023/09/23 05:08:36;;;;;;;;;;;10.90;99.90;;;;;;5069317;28;20389;-65
2023/09/23 05:11:03;;;;;;;;;;;11.20;99.90;;;;;;5086634;28;19951;-65
2023/09/23 05:13:29;;;;;;;;;;;11.10;99.90;;;;;;5085518;28;19924;-64
2023/09/23 05:15:55;;;;;;;;;;;11.00;99.90;;;;;;5085883;28;20400;-65
2023/09/23 05:18:20;;;;;;;;;;;11.20;99.90;;;;;;5086225;28;20350;-64
2023/09/23 05:20:47;;;;;;;;;;;11.20;99.90;;;;;;5085055;28;19946;-65
2023/09/23 05:23:13;;;;;;;;;;;11.20;99.90;;;;;;5085593;28;19931;-65
2023/09/23 05:25:41;;;;;;;;;;;11.10;99.90;;;;;;5086325;28;19924;-65
2023/09/23 05:28:06;;;;;;;;;;;11.00;99.90;;;;;;5086971;28;20221;-65
2023/09/23 05:30:32;;;;;;;;;;;11.30;99.90;;;;;;5085551;28;20006;-65
2023/09/23 05:32:58;;;;;;;;;;;11.00;99.90;;;;;;5087039;28;19928;-64
2023/09/23 05:35:24;;;;;;;;;;;11.30;99.90;;;;;;5083987;28;19920;-66
2023/09/23 05:37:51;;;;;;;;;;;11.30;99.90;;;;;;5080968;28;20082;-66
2023/09/23 05:42:51;;;;;;;;;;;11.30;99.90;;;;;;5082691;28;19935;-65
2023/09/23 05:45:17;;;;;;;;;;;11.30;99.90;;;;;;5081419;28;19924;-65
2023/09/23 05:47:45;;;;;;;;;;;11.00;99.90;;;;;;5064606;28;20553;-66
2023/09/23 05:50:10;;;;;;;;;;;11.30;99.90;;;;;;5081373;28;20354;-66
2023/09/23 05:52:36;;;;;;;;;;;11.20;99.90;;;;;;5081973;28;19927;-65
2023/09/23 05:55:03;;;;;;;;;;;11.30;99.90;;;;;;5082116;28;20486;-66
2023/09/23 05:57:29;;;;;;;;;;;11.10;99.90;;;;;;5081002;28;19940;-65
2023/09/23 05:59:55;;;;;;;;;;;11.00;99.90;;;;;;5081744;28;19947;-65
2023/09/23 06:02:21;;;;;;;;;;;11.10;99.90;;;;;;5080861;28;19981;-64
2023/09/23 06:04:47;;;;;;;;;;;10.90;99.90;;;;;;5064060;28;20057;-65
2023/09/23 06:07:12;;;;;;;;;;;11.20;99.90;;;;;;5080805;28;20436;-65
2023/09/23 06:09:42;;;;;;;;;;;11.00;99.90;;;;;;5063918;28;20351;-65
2023/09/23 06:12:07;;;;;;;;;;;11.00;99.90;;;;;;5082715;28;19939;-65
2023/09/23 06:14:33;;;;;;;;;;;11.20;99.90;;;;;;5081282;28;20084;-65
2023/09/23 06:16:59;;;;;;;;;;;11.00;99.90;;;;;;5080585;28;19947;-65
2023/09/23 06:19:24;;;;;;;;;;;11.10;99.90;;;;;;5064072;28;19920;-65
2023/09/23 06:21:51;;;;;;;;;;;11.10;99.90;;;;;;5081704;28;19920;-65
2023/09/23 06:24:16;;;;;;;;;;;10.80;99.90;;;;;;5080841;28;19924;-65
2023/09/23 06:26:42;;;;;;;;;;;10.90;99.90;;;;;;5079798;28;19935;-65
2023/09/23 06:29:09;;;;;;;;;;;10.80;99.90;;;;;;5081014;28;19980;-65
2023/09/23 06:31:34;;;;;;;;;;;10.90;99.90;;;;;;5063342;28;19960;-65
2023/09/23 06:34:00;;;;;;;;;;;11.10;99.90;;;;;;5081190;28;19924;-65
2023/09/23 06:36:26;;;;;;;;;;;10.90;99.90;;;;;;5081435;28;19924;-65
2023/09/23 06:38:51;;;;;;;;;;;11.30;99.90;;;;;;5063125;28;19924;-65
2023/09/23 06:41:17;;;;;;;;;;;11.60;99.90;;;;;;5079900;28;19979;-64
2023/09/23 06:43:43;;;;;;;;;;;11.70;99.90;;;;;;5080350;28;19927;-65
2023/09/23 06:46:08;;;;;;;;;;;12.10;99.90;;;;;;5063758;28;20203;-65
2023/09/23 06:48:34;;;;;;;;;;;12.40;99.90;;;;;;5079973;28;19972;-66
2023/09/23 06:51:00;;;;;;;;;;;12.60;99.90;;;;;;5079673;28;20022;-66
2023/09/23 06:53:27;;;;;;;;;;;12.70;99.90;;;;;;5079534;28;20198;-65
2023/09/23 06:55:53;;;;;;;;;;;12.80;99.90;;;;;;5080085;28;19920;-66
2023/09/23 06:58:18;;;;;;;;;;;13.10;99.90;;;;;;5080321;28;19977;-66
2023/09/23 07:00:44;;;;;;;;;;;13.20;99.90;;;;;;5079742;28;20378;-65
2023/09/23 07:03:10;;;;;;;;;;;13.20;99.90;;;;;;5063064;28;20320;-66
2023/09/23 07:05:36;;;;;;;;;;;13.00;99.90;;;;;;5063141;28;19924;-65
2023/09/23 07:08:01;;;;;;;;;;;12.80;99.90;;;;;;5079756;28;20007;-66
2023/09/23 07:10:27;;;;;;;;;;;12.50;99.90;;;;;;5079137;28;20046;-66
2023/09/23 07:12:53;;;;;;;;;;;12.60;99.90;;;;;;5079857;28;20063;-66
2023/09/23 07:15:18;;;;;;;;;;;12.20;99.90;;;;;;5062963;28;20019;-65
2023/09/23 07:17:44;;;;;;;;;;;12.40;99.90;;;;;;5080878;28;19924;-65
2023/09/23 07:20:10;;;;;;;;;;;12.30;99.90;;;;;;5062638;28;19973;-66
2023/09/23 07:22:35;;;;;;;;;;;12.20;99.90;;;;;;5078984;28;20400;-65
2023/09/23 07:25:03;;;;;;;;;;;12.40;99.90;;;;;;5079017;28;19927;-65
2023/09/23 07:27:29;;;;;;;;;;;12.30;99.90;;;;;;5079548;28;19924;-65
2023/09/23 07:29:54;;;;;;;;;;;12.20;99.90;;;;;;5079732;28;20172;-66
2023/09/23 07:32:20;;;;;;;;;;;12.50;99.90;;;;;;5079093;28;19940;-66
2023/09/23 07:34:46;;;;;;;;;;;12.70;99.90;;;;;;5062103;28;19984;-65
2023/09/23 07:37:13;;;;;;;;;;;12.50;99.90;;;;;;5079013;28;19973;-65
2023/09/23 07:39:39;;;;;;;;;;;13.00;99.90;;;;;;5078585;28;20203;-65
2023/09/23 07:42:04;;;;;;;;;;;13.00;99.90;;;;;;5078937;28;19978;-65
2023/09/23 07:44:30;;;;;;;;;;;13.30;99.90;;;;;;5061802;28;20107;-65
2023/09/23 07:46:56;;;;;;;;;;;13.10;99.90;;;;;;5062597;28;19942;-66
2023/09/23 07:49:21;;;;;;;;;;;13.20;99.90;;;;;;5079064;28;19964;-67
2023/09/23 07:51:47;;;;;;;;;;;13.60;99.90;;;;;;5062285;28;19928;-66
2023/09/23 07:54:13;;;;;;;;;;;13.70;99.90;;;;;;5080194;28;20363;-66
2023/09/23 07:56:39;;;;;;;;;;;13.70;99.90;;;;;;5080524;28;19980;-66
2023/09/23 07:59:04;;;;;;;;;;;14.20;99.90;;;;;;5080561;28;19924;-66
2023/09/23 08:01:30;;;;;;;;;;;14.20;99.90;;;;;;5080771;28;19978;-65
2023/09/23 08:03:55;;;;;;;;;;;14.20;99.90;;;;;;5078830;28;19977;-65
2023/09/23 08:06:21;;;;;;;;;;;14.10;99.90;;;;;;5079579;28;19920;-66
2023/09/23 08:08:46;;;;;;;;;;;14.20;99.90;;;;;;5079025;28;19972;-66
2023/09/23 08:11:12;;;;;;;;;;;13.90;99.90;;;;;;5078997;28;20224;-66
2023/09/23 08:13:37;;;;;;;;;;;14.20;99.90;;;;;;5062563;28;19928;-65
2023/09/23 08:16:03;;;;;;;;;;;14.10;99.90;;;;;;5079605;28;20359;-65
2023/09/23 08:18:29;;;;;;;;;;;14.20;99.90;;;;;;5079072;28;19923;-66
2023/09/23 08:20:58;;;;;;;;;;;14.00;99.90;;;;;;5079221;28;20390;-65
2023/09/23 08:23:24;;;;;;;;;;;14.10;99.90;;;;;;5078652;28;20107;-66
2023/09/23 08:25:49;;;;;;;;;;;14.00;99.90;;;;;;5079107;28;19924;-65
2023/09/23 08:28:15;;;;;;;;;;;14.00;99.90;;;;;;5079155;28;19935;-65
2023/09/23 08:30:43;;;;;;;;;;;14.00;99.90;;;;;;5078966;28;20134;-65
2023/09/23 08:33:09;;;;;;;;;;;14.10;99.90;;;;;;5080402;28;20420;-65
2023/09/23 08:35:35;;;;;;;;;;;14.30;99.90;;;;;;5078947;28;19924;-66
2023/09/23 08:38:01;;;;;;;;;;;14.30;99.90;;;;;;5079353;28;20314;-66
2023/09/23 08:40:27;;;;;;;;;;;14.30;99.90;;;;;;5079106;28;20602;-66
2023/09/23 08:42:54;;;;;;;;;;;14.60;99.90;;;;;;5079810;28;19928;-66
2023/09/23 08:45:26;;;;;;;;;;;15.10;99.90;;;;;;5062501;28;19924;-67
2023/09/23 08:47:51;;;;;;;;;;;15.60;99.90;;;;;;5080612;28;20014;-66
2023/09/23 08:50:17;;;;;;;;;;;16.10;99.90;;;;;;5078783;28;20011;-67
2023/09/23 08:52:43;;;;;;;;;;;16.60;99.90;;;;;;5078686;28;19924;-65
2023/09/23 08:55:10;;;;;;;;;;;16.90;99.90;;;;;;5079758;28;19920;-65
2023/09/23 08:57:36;;;;;;;;;;;17.50;99.90;;;;;;5083351;28;19964;-66
2023/09/23 09:00:07;;;;;;;;;;;17.90;99.90;;;;;;5066326;28;19964;-66
2023/09/23 09:02:32;;;;;;;;;;;18.30;99.90;;;;;;5082473;28;19977;-66
2023/09/23 09:04:58;;;;;;;;;;;17.90;99.90;;;;;;5082792;28;20371;-65
2023/09/23 09:07:25;;;;;;;;;;;16.80;1.00;;;;;;5082660;28;20429;-66
2023/09/23 09:09:51;;;;;;;;;;;16.60;99.90;;;;;;5066255;28;20279;-65
2023/09/23 09:12:16;;;;;;;;;;;16.30;99.90;;;;;;5082524;28;19935;-66
2023/09/23 09:14:47;;;;;;;;;;;16.50;99.90;;;;;;5082149;28;19971;-66
2023/09/23 09:17:14;;;;;;;;;;;17.00;99.90;;;;;;5083352;28;20149;-65
2023/09/23 09:19:40;;;;;;;;;;;16.90;99.90;;;;;;5064793;28;19927;-65
2023/09/23 09:22:06;;;;;;;;;;;16.60;99.90;;;;;;5081950;28;19924;-65
2023/09/23 09:24:33;;;;;;;;;;;16.60;99.90;;;;;;5081998;28;20547;-66
2023/09/23 09:26:59;;;;;;;;;;;16.50;99.90;;;;;;5081563;28;19931;-65
2023/09/23 09:29:24;;;;;;;;;;;16.40;99.90;;;;;;5081687;28;19924;-65
2023/09/23 09:31:51;;;;;;;;;;;16.30;99.90;;;;;;5064443;28;19928;-65
2023/09/23 09:34:20;;;;;;;;;;;16.60;99.90;;;;;;5048131;28;19989;-65
2023/09/23 09:36:45;;;;;;;;;;;16.90;99.90;;;;;;5063940;28;19924;-65
2023/09/23 09:39:14;;;;;;;;;;;16.80;21.20;;;;;;5064900;28;20117;-65
2023/09/23 09:41:46;;;;;;;;;;;16.80;99.90;;;;;;5063988;28;19924;-64
2023/09/23 09:44:14;;;;;;;;;;;16.90;99.90;;;;;;5081123;28;20346;-65
2023/09/23 09:46:41;;;;;;;;;;;16.70;99.90;;;;;;5080328;28;20478;-65
2023/09/23 09:49:07;;;;;;;;;;;16.80;96.30;;;;;;5064449;28;20485;-65
2023/09/23 09:51:35;;;;;;;;;;;17.20;99.90;;;;;;5047760;28;19938;-64
2023/09/23 09:54:02;;;;;;;;;;;17.40;99.90;;;;;;5081187;28;19971;-65
2023/09/23 09:56:28;;;;;;;;;;;17.50;99.90;;;;;;5080811;28;20023;-65
2023/09/23 09:58:54;;;;;;;;;;;17.50;99.90;;;;;;5082473;28;20241;-67
2023/09/23 10:01:19;;;;;;;;;;;17.70;99.90;;;;;;5064379;28;19928;-66
2023/09/23 10:03:49;;;;;;;;;;;18.00;99.90;;;;;;5081299;28;19920;-65
2023/09/23 10:06:18;;;;;;;;;;;18.60;99.90;;;;;;5081731;28;19920;-69
2023/09/23 10:08:46;;;;;;;;;;;18.70;4.20;;;;;;5063901;28;20250;-65
2023/09/23 10:11:13;;;;;;;;;;;18.70;61.70;;;;;;5080615;28;20437;-65
2023/09/23 10:13:38;;;;;;;;;;;18.70;1.00;;;;;;5081253;28;19920;-66
2023/09/23 10:16:05;;;;;;;;;;;19.10;99.90;;;;;;5080543;28;19920;-65
2023/09/23 10:18:35;;;;;;;;;;;19.10;99.90;;;;;;5081016;28;20005;-65
2023/09/23 10:21:02;;;;;;;;;;;19.10;1.00;;;;;;5081075;28;19980;-65
2023/09/23 10:23:32;;;;;;;;;;;19.00;13.50;;;;;;5080839;28;19928;-65
2023/09/23 10:25:58;;;;;;;;;;;19.10;99.90;;;;;;5063531;28;20125;-66
2023/09/23 10:28:30;;;;;;;;;;;18.80;1.00;;;;;;5063657;28;20000;-65
2023/09/23 10:30:59;;;;;;;;;;;18.70;21.70;;;;;;5080626;28;19931;-65
2023/09/23 10:33:26;;;;;;;;;;;18.40;46.60;;;;;;5081136;28;19935;-65
2023/09/23 10:35:56;;;;;;;;;;;18.40;91.70;;;;;;5081085;28;19977;-64
2023/09/23 10:38:23;;;;;;;;;;;18.30;12.50;;;;;;5080697;28;19970;-65
2023/09/23 10:40:52;;;;;;;;;;;18.20;92.60;;;;;;5080178;28;19920;-65
2023/09/23 10:43:18;;;;;;;;;;;17.90;44.70;;;;;;5081286;28;19963;-65
2023/09/23 10:45:44;;;;;;;;;;;17.90;83.40;;;;;;5080865;28;19978;-65
2023/09/23 10:48:09;;;;;;;;;;;17.90;51.70;;;;;;5063240;28;19924;-65
2023/09/23 10:50:35;;;;;;;;;;;17.60;90.50;;;;;;5080283;28;19920;-65
2023/09/23 10:53:00;;;;;;;;;;;17.40;99.90;;;;;;5079760;28;20269;-65
2023/09/23 10:55:26;;;;;;;;;;;17.20;1.00;;;;;;5081637;28;19924;-65
2023/09/23 10:57:53;;;;;;;;;;;17.00;99.90;;;;;;5080186;28;19930;-65
2023/09/23 11:00:20;;;;;;;;;;;16.90;99.90;;;;;;5080969;28;19959;-65
2023/09/23 11:02:52;;;;;;;;;;;16.60;99.90;;;;;;5079810;28;20321;-66
2023/09/23 11:05:22;;;;;;;;;;;16.40;60.30;;;;;;5080010;28;19962;-64
2023/09/23 11:07:48;;;;;;;;;;;16.40;99.90;;;;;;5079596;28;19920;-65
2023/09/23 11:10:14;;;;;;;;;;;16.20;99.90;;;;;;5080754;28;20286;-65
2023/09/23 11:12:45;;;;;;;;;;;16.20;99.90;;;;;;5063205;28;19924;-65
2023/09/23 11:15:12;;;;;;;;;;;16.30;99.90;;;;;;5063544;28;19977;-64
2023/09/23 11:17:39;;;;;;;;;;;16.30;99.90;;;;;;5081464;28;19967;-64
2023/09/23 11:20:08;;;;;;;;;;;16.40;99.90;;;;;;5079513;28;20372;-65
2023/09/23 11:22:34;;;;;;;;;;;16.50;99.90;;;;;;5079954;28;19920;-64
2023/09/23 11:24:59;;;;;;;;;;;16.50;99.90;;;;;;5063605;28;19924;-64
2023/09/23 11:27:26;;;;;;;;;;;16.30;99.90;;;;;;5062849;28;19928;-64
2023/09/23 11:29:51;;;;;;;;;;;16.20;99.90;;;;;;5079797;28;20398;-65
2023/09/23 11:32:24;;;;;;;;;;;16.10;99.90;;;;;;5080954;28;20113;-65
2023/09/23 11:34:50;;;;;;;;;;;16.00;99.90;;;;;;5079749;28;19950;-64
2023/09/23 11:37:17;;;;;;;;;;;15.80;99.90;;;;;;5081050;28;19920;-64
2023/09/23 11:39:42;;;;;;;;;;;15.70;99.90;;;;;;5079831;28;19924;-64
2023/09/23 11:42:08;;;;;;;;;;;15.50;99.90;;;;;;5061979;28;19970;-65
2023/09/23 11:44:34;;;;;;;;;;;15.30;99.90;;;;;;5062177;28;19971;-64
2023/09/23 11:47:00;;;;;;;;;;;15.20;99.90;;;;;;5078758;28;19965;-65
2023/09/23 11:49:25;;;;;;;;;;;15.00;99.90;;;;;;5080255;28;19920;-65
2023/09/23 11:51:51;;;;;;;;;;;15.10;99.90;;;;;;5080171;28;19931;-65
2023/09/23 11:54:17;;;;;;;;;;;15.10;99.90;;;;;;5079297;28;20217;-64
2023/09/23 11:56:42;;;;;;;;;;;15.00;99.90;;;;;;5078867;28;19931;-65
2023/09/23 11:59:08;;;;;;;;;;;15.00;99.90;;;;;;5080050;28;19982;-65
2023/09/23 12:01:33;;;;;;;;;;;15.10;99.90;;;;;;5078842;28;20014;-65
2023/09/23 12:03:59;;;;;;;;;;;14.90;99.90;;;;;;5078700;28;19927;-66
2023/09/23 12:06:25;;;;;;;;;;;14.90;99.90;;;;;;5079827;28;20147;-66
2023/09/23 12:08:51;;;;;;;;;;;14.80;99.90;;;;;;5079163;28;19920;-66
2023/09/23 12:11:21;;;;;;;;;;;14.80;99.90;;;;;;5078680;28;19997;-66
2023/09/23 12:13:52;;;;;;;;;;;14.80;99.90;;;;;;5078874;28;20293;-66
2023/09/23 12:16:17;;;;;;;;;;;15.00;99.90;;;;;;5079134;28;20663;-65
2023/09/23 12:18:44;;;;;;;;;;;14.80;99.90;;;;;;5079891;28;20504;-65
2023/09/23 12:21:10;;;;;;;;;;;14.80;99.90;;;;;;5079400;28;20489;-65
2023/09/23 12:23:37;;;;;;;;;;;14.80;99.90;;;;;;5079460;28;19924;-66
2023/09/23 12:26:03;;;;;;;;;;;14.70;99.90;;;;;;5078899;28;20259;-66
2023/09/23 12:28:29;;;;;;;;;;;14.70;99.90;;;;;;5062070;28;19935;-66
2023/09/23 12:30:55;;;;;;;;;;;14.60;99.90;;;;;;5063659;28;19982;-68
2023/09/23 12:33:20;;;;;;;;;;;14.50;99.90;;;;;;5082458;28;20215;-67
2023/09/23 12:35:47;;;;;;;;;;;14.40;99.90;;;;;;5065904;28;19985;-67
2023/09/23 12:38:12;;;;;;;;;;;14.20;99.90;;;;;;5082947;28;19950;-66
2023/09/23 12:40:38;;;;;;;;;;;13.80;99.90;;;;;;5082512;28;19924;-66
2023/09/23 12:43:03;;;;;;;;;;;13.80;99.90;;;;;;5082883;28;19942;-66
2023/09/23 12:45:29;;;;;;;;;;;13.70;99.90;;;;;;5065879;28;19920;-65
2023/09/23 12:47:54;;;;;;;;;;;13.90;99.90;;;;;;5082499;28;19920;-65
2023/09/23 12:50:20;;;;;;;;;;;13.70;99.90;;;;;;5083913;28;20029;-66
2023/09/23 12:52:46;;;;;;;;;;;14.00;99.90;;;;;;5082906;28;20061;-65
2023/09/23 12:55:12;;;;;;;;;;;14.20;99.90;;;;;;5082440;28;20143;-66
2023/09/23 12:57:37;;;;;;;;;;;14.10;99.90;;;;;;5083015;28;19973;-66
2023/09/23 13:00:04;;;;;;;;;;;14.20;99.90;;;;;;5065557;28;19967;-66
2023/09/23 13:02:29;;;;;;;;;;;14.30;99.90;;;;;;5082294;28;19920;-65
2023/09/23 13:04:55;;;;;;;;;;;14.80;99.90;;;;;;5082352;28;19981;-66
2023/09/23 13:07:20;;;;;;;;;;;14.60;99.90;;;;;;5082834;28;19924;-66
2023/09/23 13:09:46;;;;;;;;;;;15.10;99.90;;;;;;5048700;28;19920;-65
2023/09/23 13:12:12;;;;;;;;;;;15.30;99.90;;;;;;5081996;28;19924;-66
2023/09/23 13:14:38;;;;;;;;;;;15.10;99.90;;;;;;5065023;28;20127;-65
2023/09/23 13:17:03;;;;;;;;;;;15.20;99.90;;;;;;5082288;28;20239;-65
2023/09/23 13:19:29;;;;;;;;;;;15.80;99.90;;;;;;5065270;28;19931;-66
2023/09/23 13:21:55;;;;;;;;;;;16.10;99.90;;;;;;5082584;28;19931;-65
2023/09/23 13:24:21;;;;;;;;;;;16.10;99.90;;;;;;5066163;28;20015;-66
2023/09/23 13:26:46;;;;;;;;;;;15.80;99.90;;;;;;5081594;28;19924;-66
2023/09/23 13:29:14;;;;;;;;;;;15.70;99.90;;;;;;5081986;28;19942;-66
2023/09/23 13:31:40;;;;;;;;;;;15.50;99.90;;;;;;5081773;28;19932;-65
2023/09/23 13:34:07;;;;;;;;;;;15.40;99.90;;;;;;5082877;28;20475;-65
2023/09/23 13:36:33;;;;;;;;;;;15.70;99.90;;;;;;5082665;28;19924;-65
2023/09/23 13:38:58;;;;;;;;;;;16.30;99.90;;;;;;5083476;28;19927;-65
2023/09/23 13:41:24;;;;;;;;;;;17.30;99.90;;;;;;5064154;28;20316;-66
2023/09/23 13:43:49;;;;;;;;;;;18.40;99.90;;;;;;5081096;28;19967;-65
2023/09/23 13:46:15;;;;;;;;;;;19.10;99.90;;;;;;5064593;28;19946;-65
2023/09/23 13:48:40;;;;;;;;;;;19.20;99.90;;;;;;5081380;28;19981;-66
2023/09/23 13:51:06;;;;;;;;;;;19.60;99.90;;;;;;5065007;28;20221;-66
2023/09/23 13:53:32;;;;;;;;;;;19.60;99.90;;;;;;5081811;28;20383;-65
2023/09/23 13:55:57;;;;;;;;;;;19.50;45.30;;;;;;5064540;28;20360;-65
2023/09/23 13:58:23;;;;;;;;;;;19.50;12.90;;;;;;5064136;28;19924;-65
2023/09/23 14:00:48;;;;;;;;;;;19.20;1.00;;;;;;5063789;28;19973;-65
2023/09/23 14:03:16;;;;;;;;;;;18.80;2.70;;;;;;5081264;28;20247;-65
2023/09/23 14:05:42;;;;;;;;;;;18.90;27.30;;;;;;5082487;28;19924;-65
2023/09/23 14:08:08;;;;;;;;;;;19.60;65.20;;;;;;5081622;28;20298;-65
2023/09/23 14:10:34;;;;;;;;;;;20.40;1.00;;;;;;5080233;28;19924;-66
2023/09/23 14:13:00;;;;;;;;;;;21.00;1.00;;;;;;5081070;28;19959;-64
2023/09/23 14:15:25;;;;;;;;;;;21.40;1.00;;;;;;5080873;28;19980;-64
2023/09/23 14:17:51;;;;;;;;;;;21.70;99.90;;;;;;5081215;28;20443;-66